createdAt,value
2017-10-31T00:01:54.693Z,13.43
2017-10-31T00:04:22.224Z,17.00
2017-10-31T00:06:49.809Z,17.57
2017-10-31T00:09:17.332Z,10.20
2017-10-31T00:11:44.860Z,11.87
2017-10-31T00:14:12.440Z,15.03
2017-10-31T00:16:40.000Z,19.33
2017-10-31T00:19:08.316Z,17.83
2017-10-31T00:21:35.875Z,14.10
2017-10-31T00:24:03.399Z,11.30
2017-10-31T00:26:30.923Z,21.00
2017-10-31T00:28:58.468Z,23.00
2017-10-31T00:31:26.005Z,31.23
2017-10-31T00:33:53.552Z,27.90
2017-10-31T00:36:21.233Z,21.43
2017-10-31T00:38:48.756Z,22.17
2017-10-31T00:41:16.288Z,26.33
2017-10-31T00:43:43.893Z,27.53
2017-10-31T00:46:11.423Z,22.40
2017-10-31T00:48:38.951Z,18.03
2017-10-31T00:51:06.488Z,23.00
2017-10-31T00:53:34.012Z,21.70
2017-10-31T00:56:01.531Z,15.70
2017-10-31T00:58:29.108Z,9.73
2017-10-31T01:00:56.637Z,12.60
2017-10-31T01:03:24.920Z,12.33
2017-10-31T01:05:52.465Z,10.53
2017-10-31T01:08:19.985Z,21.13
2017-10-31T01:10:49.808Z,15.40
2017-10-31T01:13:17.653Z,13.97
2017-10-31T01:15:45.191Z,15.47
2017-10-31T01:18:12.716Z,19.67
2017-10-31T01:20:41.023Z,13.80
2017-10-31T01:23:08.551Z,10.37
2017-10-31T01:25:36.080Z,11.67
2017-10-31T01:28:05.970Z,14.77
2017-10-31T01:30:36.595Z,12.83
2017-10-31T01:33:04.909Z,14.50
2017-10-31T01:35:32.433Z,8.87
2017-10-31T01:37:59.953Z,8.67
2017-10-31T01:40:27.501Z,10.90
2017-10-31T01:42:55.441Z,11.73
2017-10-31T01:45:23.000Z,12.73
2017-10-31T01:47:50.546Z,12.77
2017-10-31T01:50:18.071Z,11.53
2017-10-31T01:52:48.683Z,23.73
2017-10-31T01:55:17.873Z,11.57
2017-10-31T01:57:51.197Z,12.60
2017-10-31T02:00:20.814Z,19.67
2017-10-31T02:02:50.868Z,14.47
2017-10-31T02:05:18.422Z,18.77
2017-10-31T02:07:46.014Z,15.17
2017-10-31T02:10:13.539Z,15.43
2017-10-31T02:12:41.061Z,18.27
2017-10-31T02:15:08.685Z,21.13
2017-10-31T02:17:36.224Z,20.87
2017-10-31T02:20:03.890Z,13.60
2017-10-31T02:22:31.463Z,19.97
2017-10-31T02:24:59.448Z,15.97
2017-10-31T02:27:26.976Z,17.10
2017-10-31T02:29:54.533Z,15.73
2017-10-31T02:32:22.063Z,13.13
2017-10-31T02:34:49.630Z,13.53
2017-10-31T02:37:17.944Z,13.90
2017-10-31T02:39:45.512Z,19.60
2017-10-31T02:42:13.036Z,16.03
2017-10-31T02:44:40.587Z,15.43
2017-10-31T02:47:08.116Z,12.30
2017-10-31T02:49:35.646Z,12.23
2017-10-31T02:52:03.211Z,11.70
2017-10-31T02:54:30.749Z,10.37
2017-10-31T02:56:58.278Z,14.50
2017-10-31T02:59:25.858Z,10.23
2017-10-31T03:01:53.416Z,15.13
2017-10-31T03:04:20.948Z,19.67
2017-10-31T03:06:48.483Z,17.20
2017-10-31T03:09:16.108Z,8.87
2017-10-31T03:11:43.637Z,12.07
2017-10-31T03:14:11.179Z,10.57
2017-10-31T03:16:38.706Z,12.13
2017-10-31T03:19:07.143Z,15.57
2017-10-31T03:21:34.706Z,8.63
2017-10-31T03:24:02.216Z,9.40
2017-10-31T03:26:29.761Z,12.13
2017-10-31T03:28:57.308Z,9.47
2017-10-31T03:31:24.832Z,12.27
2017-10-31T03:33:52.354Z,10.97
2017-10-31T03:36:19.916Z,11.17
2017-10-31T03:38:47.445Z,9.90
2017-10-31T03:41:14.992Z,10.03
2017-10-31T03:43:42.544Z,7.53
2017-10-31T03:46:10.059Z,13.57
2017-10-31T03:48:37.589Z,13.20
2017-10-31T03:51:05.144Z,7.90
2017-10-31T03:53:32.673Z,13.17
2017-10-31T03:56:00.237Z,13.87
2017-10-31T03:58:28.554Z,10.43
2017-10-31T04:00:56.076Z,11.17
2017-10-31T04:03:23.601Z,13.87
2017-10-31T04:05:51.625Z,7.00
2017-10-31T04:08:20.524Z,8.80
2017-10-31T04:10:48.073Z,9.03
2017-10-31T04:13:19.011Z,12.23
2017-10-31T04:15:48.999Z,14.90
2017-10-31T04:18:20.370Z,11.13
2017-10-31T04:20:50.456Z,12.00
2017-10-31T04:23:21.457Z,9.10
2017-10-31T04:25:52.550Z,8.13
2017-10-31T04:28:22.783Z,10.70
2017-10-31T04:30:52.722Z,14.30
2017-10-31T04:33:22.706Z,10.83
2017-10-31T04:35:55.984Z,10.97
2017-10-31T04:38:26.118Z,8.50
2017-10-31T04:40:55.894Z,16.03
2017-10-31T04:43:27.522Z,9.63
2017-10-31T04:45:55.443Z,8.93
2017-10-31T04:48:25.417Z,11.47
2017-10-31T04:50:55.656Z,10.93
2017-10-31T04:53:26.703Z,9.73
2017-10-31T04:55:56.921Z,9.00
2017-10-31T04:58:27.251Z,7.83
2017-10-31T05:00:57.405Z,6.30
2017-10-31T05:03:27.605Z,39.70
2017-10-31T05:05:57.995Z,73.80
2017-10-31T05:08:28.133Z,78.00
2017-10-31T05:10:59.158Z,77.63
2017-10-31T05:13:29.127Z,65.67
2017-10-31T05:15:58.869Z,53.23
2017-10-31T05:18:28.697Z,32.20
2017-10-31T05:20:58.426Z,26.13
2017-10-31T05:23:28.826Z,13.13
2017-10-31T05:25:58.872Z,14.17
2017-10-31T05:28:29.816Z,14.17
2017-10-31T05:31:03.563Z,18.33
2017-10-31T05:33:34.531Z,16.83
2017-10-31T05:36:04.467Z,15.33
2017-10-31T05:38:35.515Z,17.17
2017-10-31T05:41:06.264Z,9.20
2017-10-31T05:43:35.928Z,10.10
2017-10-31T05:46:05.978Z,9.00
2017-10-31T05:48:35.949Z,8.73
2017-10-31T05:51:05.833Z,8.73
2017-10-31T05:53:35.768Z,12.13
2017-10-31T05:56:07.690Z,8.97
2017-10-31T05:58:37.689Z,8.13
2017-10-31T06:01:07.645Z,14.03
2017-10-31T06:03:37.561Z,15.97
2017-10-31T06:06:07.756Z,9.60
2017-10-31T06:08:37.525Z,12.17
2017-10-31T06:11:08.064Z,9.33
2017-10-31T06:13:38.089Z,13.83
2017-10-31T06:16:07.840Z,12.37
2017-10-31T06:18:37.712Z,5.57
2017-10-31T06:21:07.632Z,10.17
2017-10-31T06:23:41.604Z,6.83
2017-10-31T06:26:16.232Z,11.63
2017-10-31T06:28:52.587Z,9.83
2017-10-31T06:34:34.096Z,14.10
2017-10-31T06:37:10.121Z,18.70
2017-10-31T06:39:38.852Z,12.07
2017-10-31T06:42:08.918Z,11.03
2017-10-31T06:44:38.836Z,11.13
2017-10-31T06:47:10.011Z,11.80
2017-10-31T06:49:40.693Z,15.23
2017-10-31T06:52:11.477Z,12.23
2017-10-31T06:54:39.021Z,17.73
2017-10-31T06:57:06.581Z,10.77
2017-10-31T06:59:34.094Z,17.27
2017-10-31T07:02:01.624Z,22.43
2017-10-31T07:04:29.180Z,11.07
2017-10-31T07:06:56.704Z,12.67
2017-10-31T07:09:24.223Z,10.33
2017-10-31T07:11:52.515Z,8.50
2017-10-31T07:14:22.486Z,13.20
2017-10-31T07:16:51.526Z,37.83
2017-10-31T07:19:20.142Z,47.97
2017-10-31T07:21:47.790Z,28.00
2017-10-31T07:24:15.835Z,48.17
2017-10-31T07:26:44.149Z,66.47
2017-10-31T07:29:11.678Z,77.63
2017-10-31T07:31:39.199Z,40.07
2017-10-31T07:34:07.571Z,67.90
2017-10-31T07:36:35.096Z,63.97
2017-10-31T07:39:03.383Z,40.30
2017-10-31T07:41:31.232Z,37.03
2017-10-31T07:43:58.943Z,26.67
2017-10-31T07:46:26.480Z,50.23
2017-10-31T07:49:08.778Z,41.27
2017-10-31T07:51:41.986Z,45.97
2017-10-31T07:54:09.683Z,29.90
2017-10-31T07:56:37.213Z,17.47
2017-10-31T07:59:04.746Z,23.73
2017-10-31T08:01:32.315Z,19.50
2017-10-31T08:04:00.635Z,12.30
2017-10-31T08:06:28.845Z,13.83
2017-10-31T08:08:56.422Z,14.27
2017-10-31T08:11:25.045Z,15.57
2017-10-31T08:13:52.572Z,17.03
2017-10-31T08:16:20.126Z,15.93
2017-10-31T08:18:47.656Z,15.80
2017-10-31T08:21:15.203Z,15.80
2017-10-31T08:23:42.879Z,18.47
2017-10-31T08:26:11.324Z,14.53
2017-10-31T08:28:38.957Z,12.13
2017-10-31T08:31:06.720Z,13.37
2017-10-31T08:33:34.371Z,17.00
2017-10-31T08:36:02.049Z,11.53
2017-10-31T08:38:29.676Z,19.47
2017-10-31T08:40:57.462Z,17.73
2017-10-31T08:43:25.369Z,15.03
2017-10-31T08:45:53.170Z,17.73
2017-10-31T08:48:20.891Z,15.43
2017-10-31T08:50:48.543Z,14.27
2017-10-31T08:53:16.231Z,13.93
2017-10-31T08:55:43.808Z,20.13
2017-10-31T08:58:11.519Z,13.37
2017-10-31T09:00:39.298Z,13.93
2017-10-31T09:03:07.180Z,15.53
2017-10-31T09:05:35.110Z,18.07
2017-10-31T09:08:03.130Z,11.07
2017-10-31T09:10:30.781Z,12.67
2017-10-31T09:12:58.495Z,12.70
2017-10-31T09:15:26.113Z,20.60
2017-10-31T09:17:57.138Z,15.20
2017-10-31T09:20:24.730Z,17.90
2017-10-31T09:22:53.695Z,12.73
2017-10-31T09:25:21.260Z,13.00
2017-10-31T09:27:49.623Z,15.47
2017-10-31T09:30:17.181Z,13.67
2017-10-31T09:32:44.702Z,22.70
2017-10-31T09:35:12.997Z,18.57
2017-10-31T09:37:40.544Z,25.60
2017-10-31T09:40:08.831Z,16.60
2017-10-31T09:42:36.347Z,14.17
2017-10-31T09:45:03.880Z,19.93
2017-10-31T09:47:31.402Z,21.07
2017-10-31T09:49:59.699Z,16.40
2017-10-31T09:52:27.241Z,15.20
2017-10-31T09:54:55.614Z,8.80
2017-10-31T09:57:23.201Z,16.17
2017-10-31T09:59:50.776Z,20.07
2017-10-31T10:02:19.067Z,15.53
2017-10-31T10:04:46.579Z,19.73
2017-10-31T10:07:15.089Z,19.10
2017-10-31T10:09:42.621Z,26.27
2017-10-31T10:12:10.158Z,18.17
2017-10-31T10:14:37.715Z,16.00
2017-10-31T10:17:05.258Z,16.20
2017-10-31T10:19:32.813Z,18.27
2017-10-31T10:22:00.368Z,19.50
2017-10-31T10:24:27.922Z,11.33
2017-10-31T10:26:55.649Z,18.27
2017-10-31T10:29:23.266Z,20.37
2017-10-31T10:31:51.577Z,15.23
2017-10-31T10:34:19.133Z,20.00
2017-10-31T10:36:46.678Z,17.03
2017-10-31T10:39:15.253Z,20.27
2017-10-31T10:41:43.571Z,18.20
2017-10-31T10:44:11.162Z,22.20
2017-10-31T10:46:38.781Z,19.27
2017-10-31T10:49:06.301Z,15.33
2017-10-31T10:51:35.823Z,24.20
2017-10-31T10:54:03.379Z,19.03
2017-10-31T10:56:31.016Z,16.33
2017-10-31T10:58:58.580Z,17.50
2017-10-31T11:01:26.128Z,21.23
2017-10-31T11:03:53.702Z,20.83
2017-10-31T11:06:22.031Z,20.53
2017-10-31T11:08:49.580Z,18.23
2017-10-31T11:11:17.103Z,17.83
2017-10-31T11:13:44.678Z,24.60
2017-10-31T11:16:12.199Z,21.07
2017-10-31T11:18:40.498Z,18.60
2017-10-31T11:21:08.062Z,21.13
2017-10-31T11:23:35.625Z,16.57
2017-10-31T11:26:03.156Z,23.77
2017-10-31T11:28:30.735Z,15.27
2017-10-31T11:30:59.040Z,16.17
2017-10-31T11:33:26.573Z,15.20
2017-10-31T11:35:54.138Z,18.53
2017-10-31T11:38:21.689Z,14.87
2017-10-31T11:40:49.253Z,15.87
2017-10-31T11:43:16.812Z,14.43
2017-10-31T11:45:44.340Z,15.80
2017-10-31T11:48:11.891Z,13.47
2017-10-31T11:50:39.485Z,12.10
2017-10-31T11:53:07.017Z,18.53
2017-10-31T11:55:34.552Z,10.90
2017-10-31T11:58:02.894Z,15.33
2017-10-31T12:00:30.422Z,9.33
2017-10-31T12:02:57.968Z,11.57
2017-10-31T12:05:25.578Z,11.77
2017-10-31T12:07:53.120Z,8.27
2017-10-31T12:10:20.657Z,14.37
2017-10-31T12:12:48.215Z,12.43
2017-10-31T12:15:15.752Z,7.30
2017-10-31T12:17:43.275Z,9.07
2017-10-31T12:20:11.591Z,8.47
2017-10-31T12:22:39.117Z,14.07
2017-10-31T12:25:06.642Z,9.97
2017-10-31T12:27:34.206Z,11.43
2017-10-31T12:30:01.746Z,18.67
2017-10-31T12:32:29.275Z,10.17
2017-10-31T12:34:56.831Z,9.67
2017-10-31T12:37:24.357Z,12.93
2017-10-31T12:39:52.643Z,5.50
2017-10-31T12:42:20.190Z,8.80
2017-10-31T12:44:47.727Z,13.97
2017-10-31T12:47:15.261Z,11.00
2017-10-31T12:49:42.875Z,10.53
2017-10-31T12:52:10.503Z,8.23
2017-10-31T12:54:38.884Z,5.97
2017-10-31T12:57:06.456Z,7.50
2017-10-31T12:59:33.984Z,4.33
2017-10-31T13:02:01.531Z,9.23
2017-10-31T13:04:29.148Z,10.03
2017-10-31T13:06:56.764Z,6.80
2017-10-31T13:09:25.237Z,4.73
2017-10-31T13:11:53.125Z,2.20
2017-10-31T13:14:20.779Z,5.20
2017-10-31T13:16:48.495Z,9.33
2017-10-31T13:19:17.089Z,3.60
2017-10-31T13:21:44.783Z,3.87
2017-10-31T13:24:12.317Z,5.17
2017-10-31T13:26:40.384Z,3.40
2017-10-31T13:29:08.366Z,4.83
2017-10-31T13:31:36.436Z,3.87
2017-10-31T13:34:05.144Z,3.43
2017-10-31T13:36:33.354Z,5.43
2017-10-31T13:39:01.229Z,4.13
2017-10-31T13:41:30.088Z,4.37
2017-10-31T13:43:57.993Z,8.17
2017-10-31T13:46:25.521Z,3.77
2017-10-31T13:48:53.313Z,1.73
2017-10-31T13:51:21.320Z,3.00
2017-10-31T13:53:50.608Z,3.73
2017-10-31T13:56:18.231Z,3.67
2017-10-31T13:58:45.891Z,3.53
2017-10-31T14:01:13.470Z,4.80
2017-10-31T14:03:41.554Z,6.20
2017-10-31T14:06:10.341Z,2.63
2017-10-31T14:08:39.820Z,2.53
2017-10-31T14:11:09.565Z,2.67
2017-10-31T14:13:38.371Z,2.70
2017-10-31T14:16:07.214Z,8.10
2017-10-31T14:18:35.472Z,3.77
2017-10-31T14:21:04.754Z,5.50
2017-10-31T14:23:33.201Z,3.63
2017-10-31T14:26:02.476Z,4.63
2017-10-31T14:28:30.779Z,3.13
2017-10-31T14:31:00.389Z,4.73
2017-10-31T14:33:29.325Z,1.60
2017-10-31T14:35:57.943Z,4.37
2017-10-31T14:38:26.032Z,1.47
2017-10-31T14:40:54.211Z,2.97
2017-10-31T14:43:21.869Z,3.80
2017-10-31T14:45:50.120Z,1.30
2017-10-31T14:48:18.948Z,1.53
2017-10-31T14:50:47.408Z,2.03
2017-10-31T14:53:15.807Z,3.97
2017-10-31T14:55:44.923Z,3.13
2017-10-31T14:58:12.651Z,3.50
2017-10-31T15:00:40.634Z,4.10
2017-10-31T15:03:09.712Z,1.63
2017-10-31T15:05:39.435Z,3.93
2017-10-31T15:08:07.525Z,6.17
2017-10-31T15:10:36.153Z,7.80
2017-10-31T15:13:04.348Z,7.43
2017-10-31T15:15:32.498Z,9.33
2017-10-31T15:18:00.994Z,9.87
2017-10-31T15:20:28.544Z,7.33
2017-10-31T15:22:56.295Z,7.63
2017-10-31T15:25:24.282Z,5.87
2017-10-31T15:27:52.066Z,3.73
2017-10-31T15:30:20.941Z,6.17
2017-10-31T15:32:50.147Z,8.17
2017-10-31T15:35:18.983Z,3.83
2017-10-31T15:37:47.752Z,5.23
2017-10-31T15:40:16.253Z,7.63
2017-10-31T15:42:44.176Z,9.87
2017-10-31T15:45:12.606Z,7.33
2017-10-31T15:47:41.020Z,7.43
2017-10-31T15:50:08.581Z,13.33
2017-10-31T15:52:38.440Z,13.67
2017-10-31T15:55:06.529Z,17.13
2017-10-31T15:57:34.305Z,12.27
2017-10-31T16:00:02.941Z,17.17
2017-10-31T16:02:30.706Z,14.53
2017-10-31T16:04:58.769Z,9.13
2017-10-31T16:07:27.140Z,3.73
2017-10-31T16:09:54.716Z,5.67
2017-10-31T16:12:22.231Z,8.47
2017-10-31T16:14:51.100Z,8.47
2017-10-31T16:17:19.457Z,8.30
2017-10-31T16:19:47.697Z,5.30
2017-10-31T16:22:15.548Z,12.30
2017-10-31T16:24:43.476Z,16.27
2017-10-31T16:27:11.910Z,22.00
2017-10-31T16:29:39.798Z,23.07
2017-10-31T16:32:08.381Z,19.50
2017-10-31T16:34:37.703Z,14.77
2017-10-31T16:37:05.991Z,15.73
2017-10-31T16:39:34.705Z,11.60
2017-10-31T16:42:03.213Z,14.67
2017-10-31T16:44:32.610Z,11.83
2017-10-31T16:47:01.298Z,12.50
2017-10-31T16:49:29.798Z,10.57
2017-10-31T16:51:58.366Z,11.67
2017-10-31T16:54:27.357Z,9.03
2017-10-31T16:56:55.963Z,5.57
2017-10-31T16:59:25.189Z,11.53
2017-10-31T17:01:53.136Z,9.20
2017-10-31T17:04:20.702Z,9.77
2017-10-31T17:06:48.230Z,7.47
2017-10-31T17:09:15.781Z,5.03
2017-10-31T17:11:43.401Z,5.00
2017-10-31T17:14:11.002Z,7.37
2017-10-31T17:16:39.330Z,6.00
2017-10-31T17:19:06.951Z,3.20
2017-10-31T17:21:34.472Z,11.33
2017-10-31T17:24:03.063Z,11.03
2017-10-31T17:26:30.584Z,8.53
2017-10-31T17:28:58.130Z,7.10
2017-10-31T17:31:25.713Z,10.67
2017-10-31T17:33:53.226Z,9.57
2017-10-31T17:36:20.740Z,11.17
2017-10-31T17:38:48.280Z,9.53
2017-10-31T17:41:15.828Z,15.83
2017-10-31T17:43:43.344Z,10.73
2017-10-31T17:46:10.895Z,10.77
2017-10-31T17:48:38.422Z,12.83
2017-10-31T17:51:05.957Z,9.80
2017-10-31T17:53:33.509Z,7.17
2017-10-31T17:56:01.081Z,7.70
2017-10-31T17:58:28.605Z,7.50
2017-10-31T18:00:56.149Z,11.87
2017-10-31T18:03:23.663Z,9.53
2017-10-31T18:05:51.185Z,10.13
2017-10-31T18:08:19.524Z,8.37
2017-10-31T18:10:47.046Z,15.47
2017-10-31T18:13:14.570Z,13.60
2017-10-31T18:15:42.115Z,10.40
2017-10-31T18:18:10.403Z,8.00
2017-10-31T18:20:37.916Z,9.97
2017-10-31T18:23:05.456Z,14.73
2017-10-31T18:25:32.975Z,16.23
2017-10-31T18:28:01.258Z,4.93
2017-10-31T18:30:28.824Z,14.83
2017-10-31T18:32:56.364Z,10.87
2017-10-31T18:35:23.896Z,12.37
2017-10-31T18:37:51.442Z,15.83
2017-10-31T18:40:18.959Z,12.63
2017-10-31T18:42:47.273Z,16.63
2017-10-31T18:45:14.820Z,15.77
2017-10-31T18:47:42.344Z,11.20
2017-10-31T18:50:09.876Z,13.90
2017-10-31T18:52:37.424Z,12.60
2017-10-31T18:55:05.758Z,10.97
2017-10-31T18:57:34.159Z,19.33
2017-10-31T19:00:01.728Z,17.10
2017-10-31T19:02:29.293Z,17.23
2017-10-31T19:04:56.816Z,14.20
2017-10-31T19:07:24.355Z,20.10
2017-10-31T19:09:51.964Z,12.53
2017-10-31T19:12:19.493Z,13.07
2017-10-31T19:14:47.069Z,17.43
2017-10-31T19:17:14.643Z,21.17
2017-10-31T19:19:42.182Z,22.77
2017-10-31T19:22:09.756Z,17.43
2017-10-31T19:24:37.309Z,17.40
2017-10-31T19:27:04.896Z,20.97
2017-10-31T19:29:32.501Z,22.20
2017-10-31T19:32:00.105Z,20.40
2017-10-31T19:34:27.683Z,16.43
2017-10-31T19:36:55.287Z,10.30
2017-10-31T19:39:22.836Z,5.77
2017-10-31T19:41:50.491Z,12.27
2017-10-31T19:44:18.128Z,8.20
2017-10-31T19:46:47.923Z,6.20
2017-10-31T19:49:15.660Z,10.00
2017-10-31T19:51:43.213Z,8.97
2017-10-31T19:54:10.766Z,8.93
2017-10-31T19:56:39.006Z,11.00
2017-10-31T19:59:06.803Z,11.73
2017-10-31T20:01:34.414Z,10.17
2017-10-31T20:04:02.008Z,14.93
2017-10-31T20:06:29.559Z,15.10
2017-10-31T20:08:57.867Z,8.60
2017-10-31T20:11:25.405Z,11.63
2017-10-31T20:13:54.741Z,20.80
2017-10-31T20:16:22.252Z,16.00
2017-10-31T20:18:49.926Z,13.37
2017-10-31T20:21:17.515Z,12.77
2017-10-31T20:23:45.032Z,13.43
2017-10-31T20:26:13.311Z,8.93
2017-10-31T20:28:41.617Z,11.30
2017-10-31T20:31:09.141Z,16.93
2017-10-31T20:33:36.672Z,10.33
2017-10-31T20:36:04.255Z,16.87
2017-10-31T20:38:31.785Z,10.93
2017-10-31T20:40:59.363Z,10.33
2017-10-31T20:43:26.906Z,13.37
2017-10-31T20:45:54.459Z,10.60
2017-10-31T20:48:21.983Z,8.13
2017-10-31T20:50:49.578Z,11.37
2017-10-31T20:53:17.524Z,25.13
2017-10-31T20:55:45.928Z,8.57
2017-10-31T20:58:13.511Z,13.67
2017-10-31T21:00:41.040Z,11.97
2017-10-31T21:03:08.568Z,17.77
2017-10-31T21:05:36.157Z,14.03
2017-10-31T21:08:04.535Z,14.33
2017-10-31T21:10:32.070Z,15.80
2017-10-31T21:13:00.374Z,13.80
2017-10-31T21:15:27.913Z,14.67
2017-10-31T21:17:55.448Z,12.10
2017-10-31T21:20:23.083Z,16.93
2017-10-31T21:22:50.666Z,15.77
2017-10-31T21:25:18.193Z,20.77
2017-10-31T21:27:45.804Z,25.13
2017-10-31T21:30:14.116Z,35.47
2017-10-31T21:32:41.645Z,50.17
2017-10-31T21:35:10.015Z,41.73
2017-10-31T21:37:37.555Z,31.57
2017-10-31T21:40:05.213Z,20.70
2017-10-31T21:42:32.841Z,23.27
2017-10-31T21:45:00.387Z,16.67
2017-10-31T21:47:27.908Z,13.70
2017-10-31T21:49:56.623Z,20.57
2017-10-31T21:52:24.172Z,12.70
2017-10-31T21:54:51.740Z,13.17
2017-10-31T21:57:19.464Z,13.93
2017-10-31T21:59:47.002Z,19.43
2017-10-31T22:02:15.339Z,12.37
2017-10-31T22:04:42.901Z,15.73
2017-10-31T22:07:10.447Z,13.70
2017-10-31T22:09:37.973Z,16.93
2017-10-31T22:12:05.596Z,20.50
2017-10-31T22:14:34.030Z,17.27
2017-10-31T22:17:08.985Z,18.33
2017-10-31T22:19:41.927Z,22.30
2017-10-31T22:22:14.749Z,18.93
2017-10-31T22:24:47.849Z,23.03
2017-10-31T22:27:24.014Z,14.37
2017-10-31T22:29:58.740Z,16.40
2017-10-31T22:32:33.103Z,17.40
2017-10-31T22:35:05.721Z,15.50
2017-10-31T22:37:39.687Z,22.67
2017-10-31T22:40:07.707Z,18.50
2017-10-31T22:42:35.275Z,18.40
2017-10-31T22:45:05.159Z,19.07
2017-10-31T22:47:32.773Z,23.70
2017-10-31T22:50:05.344Z,12.67
2017-10-31T22:52:33.881Z,23.23
2017-10-31T22:55:02.312Z,19.07
2017-10-31T22:57:29.943Z,18.77
2017-10-31T22:59:57.545Z,15.73
2017-10-31T23:02:25.329Z,18.13
2017-10-31T23:04:53.017Z,19.57
2017-10-31T23:07:20.674Z,20.23
2017-10-31T23:09:48.356Z,17.67
2017-10-31T23:12:15.937Z,13.90
2017-10-31T23:14:43.511Z,18.87
2017-10-31T23:17:11.947Z,17.27
2017-10-31T23:19:39.564Z,14.07
2017-10-31T23:22:07.147Z,11.80
2017-10-31T23:24:34.725Z,21.67
2017-10-31T23:27:03.049Z,12.57
2017-10-31T23:29:30.598Z,13.23
2017-10-31T23:31:58.140Z,13.57
2017-10-31T23:34:25.676Z,10.77
2017-10-31T23:36:53.210Z,13.10
2017-10-31T23:39:20.740Z,14.03
2017-10-31T23:41:48.282Z,9.93
2017-10-31T23:44:15.808Z,14.13
2017-10-31T23:46:44.096Z,14.93
2017-10-31T23:49:11.671Z,10.17
2017-10-31T23:51:39.683Z,11.40
2017-10-31T23:54:07.207Z,14.40
2017-10-31T23:56:35.637Z,17.10
2017-10-31T23:59:03.171Z,19.27
